createdAt,value
2018-12-13T00:01:33.867Z,46.57
2018-12-13T00:04:06.908Z,51.33
2018-12-13T00:06:40.170Z,50.70
2018-12-13T00:09:11.236Z,47.73
2018-12-13T00:11:42.454Z,49.63
2018-12-13T00:14:13.271Z,51.00
2018-12-13T00:16:43.941Z,50.40
2018-12-13T00:19:14.542Z,49.13
2018-12-13T00:21:45.674Z,48.60
2018-12-13T00:24:19.693Z,45.83
2018-12-13T00:26:53.105Z,54.00
2018-12-13T00:29:25.419Z,62.37
2018-12-13T00:32:00.211Z,54.83
2018-12-13T00:34:33.869Z,58.50
2018-12-13T00:37:05.126Z,58.87
2018-12-13T00:39:35.914Z,51.50
2018-12-13T00:42:06.927Z,61.90
2018-12-13T00:44:42.998Z,53.73
2018-12-13T00:47:16.380Z,48.60
2018-12-13T00:49:48.691Z,55.47
2018-12-13T00:52:20.439Z,50.40
2018-12-13T00:54:51.240Z,49.67
2018-12-13T00:57:24.074Z,53.93
2018-12-13T00:59:55.488Z,52.80
2018-12-13T01:02:26.012Z,56.17
2018-12-13T01:04:56.783Z,56.40
2018-12-13T01:07:27.781Z,53.67
2018-12-13T01:09:58.346Z,52.87
2018-12-13T01:12:31.443Z,55.40
2018-12-13T01:15:02.359Z,57.37
2018-12-13T01:17:33.393Z,54.03
2018-12-13T01:20:07.390Z,63.57
2018-12-13T01:22:40.631Z,59.73
2018-12-13T01:25:11.464Z,57.07
2018-12-13T01:27:42.572Z,63.33
2018-12-13T01:33:07.346Z,54.13
2018-12-13T01:38:24.238Z,60.40
2018-12-13T01:40:59.175Z,57.30
2018-12-13T01:43:31.272Z,57.27
2018-12-13T01:46:02.600Z,61.70
2018-12-13T01:48:35.877Z,48.97
2018-12-13T01:51:09.700Z,56.87
2018-12-13T01:53:40.265Z,59.13
2018-12-13T01:56:11.255Z,80.90
2018-12-13T01:58:44.917Z,69.93
2018-12-13T02:01:17.464Z,78.77
2018-12-13T02:03:48.518Z,68.37
2018-12-13T02:06:21.494Z,61.30
2018-12-13T02:08:57.471Z,54.87
2018-12-13T02:11:29.219Z,63.90
2018-12-13T02:14:00.180Z,60.90
2018-12-13T02:16:31.142Z,59.10
2018-12-13T02:19:03.695Z,52.43
2018-12-13T02:21:34.774Z,54.17
2018-12-13T02:24:06.574Z,53.80
2018-12-13T02:26:38.507Z,54.63
2018-12-13T02:29:09.470Z,59.77
2018-12-13T02:31:41.157Z,53.43
2018-12-13T02:34:14.013Z,54.53
2018-12-13T02:36:45.195Z,60.67
2018-12-13T02:39:20.339Z,63.90
2018-12-13T02:41:52.631Z,55.33
2018-12-13T02:44:23.577Z,66.13
2018-12-13T02:46:54.267Z,68.60
2018-12-13T02:49:24.934Z,65.17
2018-12-13T02:51:55.482Z,64.27
2018-12-13T02:54:26.328Z,59.47
2018-12-13T02:57:05.595Z,63.33
2018-12-13T02:59:39.036Z,68.90
2018-12-13T03:02:09.687Z,63.67
2018-12-13T03:04:43.158Z,59.63
2018-12-13T03:07:14.433Z,60.23
2018-12-13T03:09:45.588Z,59.27
2018-12-13T03:12:19.073Z,61.27
2018-12-13T03:14:51.808Z,66.30
2018-12-13T03:17:25.962Z,55.93
2018-12-13T03:19:58.056Z,68.57
2018-12-13T03:22:29.935Z,58.63
2018-12-13T03:25:02.658Z,64.53
2018-12-13T03:27:33.763Z,58.53
2018-12-13T03:30:05.133Z,59.33
2018-12-13T03:32:38.049Z,48.90
2018-12-13T03:35:10.875Z,57.43
2018-12-13T03:37:42.220Z,59.50
2018-12-13T03:40:12.851Z,62.47
2018-12-13T03:42:46.677Z,58.27
2018-12-13T03:45:19.962Z,79.70
2018-12-13T03:47:54.139Z,72.23
2018-12-13T03:50:41.468Z,66.37
2018-12-13T03:53:14.246Z,60.23
2018-12-13T03:55:44.781Z,57.27
2018-12-13T03:58:20.931Z,59.77
2018-12-13T04:00:57.560Z,58.47
2018-12-13T04:03:29.460Z,60.83
2018-12-13T04:06:11.361Z,61.33
2018-12-13T04:08:44.929Z,64.13
2018-12-13T04:11:17.750Z,66.37
2018-12-13T04:13:52.058Z,66.67
2018-12-13T04:16:23.116Z,70.83
2018-12-13T04:18:56.094Z,78.47
2018-12-13T04:21:27.256Z,67.83
2018-12-13T04:24:00.231Z,77.67
2018-12-13T04:26:31.394Z,72.00
2018-12-13T04:29:02.162Z,70.60
2018-12-13T04:31:35.198Z,66.57
2018-12-13T04:34:06.215Z,65.03
2018-12-13T04:36:36.543Z,75.67
2018-12-13T04:39:08.661Z,67.33
2018-12-13T04:47:55.023Z,60.30
2018-12-13T04:50:40.107Z,67.47
2018-12-13T04:53:12.117Z,67.73
2018-12-13T04:56:02.926Z,66.20
2018-12-13T04:58:34.495Z,63.50
2018-12-13T05:01:06.028Z,68.37
2018-12-13T05:03:38.911Z,70.47
2018-12-13T05:06:10.249Z,76.87
2018-12-13T05:08:43.547Z,70.60
2018-12-13T05:11:14.652Z,68.73
2018-12-13T05:13:45.658Z,70.87
2018-12-13T05:16:18.514Z,59.73
2018-12-13T05:18:49.523Z,63.10
2018-12-13T05:21:22.445Z,68.33
2018-12-13T05:23:53.435Z,73.30
2018-12-13T05:26:26.540Z,72.47
2018-12-13T05:28:58.805Z,80.03
2018-12-13T05:31:31.324Z,66.17
2018-12-13T05:34:02.364Z,79.13
2018-12-13T05:36:33.738Z,74.93
2018-12-13T05:39:08.038Z,74.83
2018-12-13T05:41:40.949Z,62.67
2018-12-13T05:44:13.695Z,71.83
2018-12-13T05:46:45.904Z,70.70
2018-12-13T05:49:17.044Z,69.60
2018-12-13T05:51:48.823Z,62.33
2018-12-13T05:54:20.755Z,72.57
2018-12-13T05:56:52.005Z,65.80
2018-12-13T05:59:22.711Z,78.73
2018-12-13T06:01:56.454Z,81.23
2018-12-13T06:04:29.764Z,66.33
2018-12-13T06:07:01.369Z,69.17
2018-12-13T06:09:33.721Z,75.10
2018-12-13T06:12:04.542Z,70.67
2018-12-13T06:14:35.552Z,61.80
2018-12-13T06:17:08.996Z,55.30
2018-12-13T06:19:45.251Z,63.87
2018-12-13T06:22:22.035Z,66.27
2018-12-13T06:24:54.460Z,63.57
2018-12-13T06:27:26.581Z,71.97
2018-12-13T06:29:59.947Z,64.60
2018-12-13T06:32:30.742Z,61.57
2018-12-13T06:35:02.749Z,64.80
2018-12-13T06:37:35.155Z,65.40
2018-12-13T06:40:06.493Z,61.43
2018-12-13T06:42:37.811Z,60.63
2018-12-13T06:45:12.348Z,65.70
2018-12-13T06:48:08.967Z,69.07
2018-12-13T06:50:59.337Z,80.00
2018-12-13T06:53:30.681Z,71.23
2018-12-13T06:56:01.637Z,79.03
2018-12-13T06:58:32.547Z,81.70
2018-12-13T07:01:03.107Z,72.67
2018-12-13T07:03:33.825Z,80.37
2018-12-13T07:06:05.195Z,85.03
2018-12-13T07:08:36.059Z,71.33
2018-12-13T07:11:07.672Z,76.77
2018-12-13T07:13:39.985Z,84.60
2018-12-13T07:16:12.300Z,79.33
2018-12-13T07:18:48.831Z,76.70
2018-12-13T07:21:21.752Z,81.03
2018-12-13T07:23:54.480Z,84.33
2018-12-13T07:26:25.965Z,81.10
2018-12-13T07:28:58.737Z,81.37
2018-12-13T07:31:32.064Z,117.03
2018-12-13T07:34:03.126Z,93.93
2018-12-13T07:36:36.963Z,81.13
2018-12-13T07:39:10.494Z,87.73
2018-12-13T07:41:41.066Z,78.60
2018-12-13T07:44:14.524Z,75.23
2018-12-13T07:46:45.161Z,83.87
2018-12-13T07:49:16.129Z,95.60
2018-12-13T07:51:47.032Z,78.70
2018-12-13T07:54:17.647Z,93.10
2018-12-13T07:56:50.818Z,86.73
2018-12-13T07:59:24.908Z,85.80
2018-12-13T08:01:58.093Z,83.93
2018-12-13T08:04:29.208Z,90.60
2018-12-13T08:07:02.591Z,76.90
2018-12-13T08:09:34.388Z,75.83
2018-12-13T08:12:05.234Z,81.57
2018-12-13T08:14:37.938Z,82.20
2018-12-13T08:17:09.675Z,116.20
2018-12-13T08:19:40.522Z,82.70
2018-12-13T08:22:13.024Z,74.83
2018-12-13T08:24:44.494Z,80.93
2018-12-13T08:27:15.014Z,75.77
2018-12-13T08:29:46.079Z,78.30
2018-12-13T08:32:19.183Z,75.27
2018-12-13T08:34:51.216Z,69.53
2018-12-13T08:37:23.019Z,68.93
2018-12-13T08:39:54.118Z,75.50
2018-12-13T08:42:26.188Z,78.47
2018-12-13T08:44:58.407Z,69.20
2018-12-13T08:47:29.606Z,65.17
2018-12-13T08:50:03.558Z,68.20
2018-12-13T08:52:36.516Z,61.53
2018-12-13T08:55:08.255Z,78.00
2018-12-13T08:57:41.421Z,74.50
2018-12-13T09:00:12.732Z,75.70
2018-12-13T09:02:57.189Z,78.13
2018-12-13T09:05:34.958Z,67.80
2018-12-13T09:08:09.099Z,75.70
2018-12-13T09:10:56.915Z,92.07
2018-12-13T09:13:28.415Z,106.57
2018-12-13T09:16:08.203Z,140.23
2018-12-13T09:18:40.672Z,141.00
2018-12-13T09:21:12.454Z,124.27
2018-12-13T09:23:44.328Z,109.17
2018-12-13T09:26:17.218Z,76.40
2018-12-13T09:28:49.998Z,76.87
2018-12-13T09:31:24.908Z,72.93
2018-12-13T09:34:01.661Z,67.00
2018-12-13T09:36:35.140Z,74.47
2018-12-13T09:39:11.214Z,70.43
2018-12-13T09:41:46.080Z,77.77
2018-12-13T09:44:23.179Z,69.70
2018-12-13T09:46:56.488Z,62.37
2018-12-13T09:49:29.069Z,65.07
2018-12-13T09:52:01.422Z,55.20
2018-12-13T09:54:34.886Z,62.37
2018-12-13T09:57:05.771Z,57.67
2018-12-13T09:59:36.963Z,56.97
2018-12-13T10:02:10.668Z,61.57
2018-12-13T10:04:43.774Z,58.27
2018-12-13T10:07:14.824Z,59.23
2018-12-13T10:09:45.801Z,53.73
2018-12-13T10:12:18.978Z,57.90
2018-12-13T10:14:51.662Z,43.07
2018-12-13T10:17:22.720Z,51.23
2018-12-13T10:19:55.629Z,49.10
2018-12-13T10:22:28.654Z,54.03
2018-12-13T10:25:01.532Z,50.97
2018-12-13T10:27:35.205Z,47.20
2018-12-13T10:30:09.207Z,49.13
2018-12-13T10:32:42.165Z,51.67
2018-12-13T10:35:13.403Z,52.60
2018-12-13T10:38:03.626Z,53.20
2018-12-13T10:40:43.414Z,61.07
2018-12-13T10:43:22.615Z,55.27
2018-12-13T10:45:53.863Z,56.10
2018-12-13T10:48:24.679Z,53.30
2018-12-13T10:50:58.812Z,56.73
2018-12-13T10:53:31.987Z,65.27
2018-12-13T10:56:05.168Z,50.53
2018-12-13T10:58:36.009Z,50.00
2018-12-13T11:01:11.778Z,54.53
2018-12-13T11:03:43.958Z,56.20
2018-12-13T11:06:16.802Z,54.00
2018-12-13T11:08:49.153Z,50.30
2018-12-13T11:11:21.893Z,54.30
2018-12-13T11:13:54.802Z,47.80
2018-12-13T11:16:26.145Z,62.00
2018-12-13T11:18:57.227Z,54.03
2018-12-13T11:21:28.112Z,56.07
2018-12-13T11:24:01.796Z,68.70
2018-12-13T11:26:41.502Z,58.23
2018-12-13T11:29:28.312Z,55.80
2018-12-13T11:32:00.643Z,60.83
2018-12-13T11:34:31.598Z,61.50
2018-12-13T11:37:02.861Z,65.63
2018-12-13T11:39:36.277Z,66.30
2018-12-13T11:42:09.390Z,63.07
2018-12-13T11:44:40.835Z,57.77
2018-12-13T11:47:19.812Z,76.20
2018-12-13T11:49:52.899Z,71.73
2018-12-13T11:52:24.044Z,70.80
2018-12-13T11:54:59.166Z,74.93
2018-12-13T11:57:31.411Z,64.03
2018-12-13T12:00:02.161Z,68.77
2018-12-13T12:02:35.308Z,62.50
2018-12-13T12:05:06.512Z,58.20
2018-12-13T12:07:39.088Z,57.30
2018-12-13T12:10:10.441Z,57.43
2018-12-13T12:12:41.627Z,58.73
2018-12-13T12:15:15.420Z,64.77
2018-12-13T12:18:02.976Z,59.10
2018-12-13T12:20:37.960Z,63.70
2018-12-13T12:23:28.547Z,58.77
2018-12-13T12:26:02.913Z,57.37
2018-12-13T12:28:37.391Z,56.93
2018-12-13T12:31:10.069Z,56.43
2018-12-13T12:33:42.403Z,52.07
2018-12-13T12:36:15.799Z,66.97
2018-12-13T12:38:46.598Z,66.93
2018-12-13T12:41:17.111Z,67.90
2018-12-13T12:43:49.348Z,80.13
2018-12-13T12:46:24.630Z,65.57
2018-12-13T12:48:58.332Z,74.40
2018-12-13T12:51:32.448Z,64.77
2018-12-13T12:54:05.448Z,67.23
2018-12-13T12:56:38.307Z,64.60
2018-12-13T12:59:09.255Z,63.03
2018-12-13T13:01:39.917Z,68.03
2018-12-13T13:04:10.462Z,62.50
2018-12-13T13:06:41.093Z,58.20
2018-12-13T13:09:11.882Z,63.90
2018-12-13T13:11:43.067Z,73.17
2018-12-13T13:14:22.364Z,65.87
2018-12-13T13:16:55.507Z,67.73
2018-12-13T13:19:27.645Z,64.60
2018-12-13T13:21:58.714Z,67.37
2018-12-13T13:24:31.136Z,54.53
2018-12-13T13:27:02.047Z,61.10
2018-12-13T13:29:32.656Z,65.83
2018-12-13T13:32:03.818Z,67.10
2018-12-13T13:34:34.383Z,65.53
2018-12-13T13:37:08.651Z,59.80
2018-12-13T13:39:44.302Z,68.17
2018-12-13T13:42:15.651Z,58.33
2018-12-13T13:44:46.931Z,60.80
2018-12-13T13:47:19.427Z,66.40
2018-12-13T13:49:52.591Z,66.57
2018-12-13T13:52:24.351Z,63.47
2018-12-13T13:54:55.014Z,58.47
2018-12-13T13:57:25.852Z,58.30
2018-12-13T13:59:56.694Z,75.93
2018-12-13T14:02:27.267Z,62.23
2018-12-13T14:04:58.084Z,64.67
2018-12-13T14:07:32.066Z,60.73
2018-12-13T14:10:05.517Z,70.60
2018-12-13T14:12:38.878Z,68.57
2018-12-13T14:15:11.882Z,60.73
2018-12-13T14:17:42.981Z,54.63
2018-12-13T14:20:13.613Z,62.50
2018-12-13T14:22:45.730Z,58.70
2018-12-13T14:25:31.942Z,58.83
2018-12-13T14:28:04.595Z,65.53
2018-12-13T14:30:49.836Z,53.27
2018-12-13T14:33:21.544Z,59.70
2018-12-13T14:35:54.763Z,59.13
2018-12-13T14:38:30.570Z,51.60
2018-12-13T14:41:01.829Z,60.57
2018-12-13T14:43:33.092Z,64.67
2018-12-13T14:46:04.106Z,61.20
2018-12-13T14:48:35.118Z,64.93
2018-12-13T14:51:21.626Z,57.77
2018-12-13T14:53:54.910Z,54.97
2018-12-13T14:56:26.860Z,58.47
2018-12-13T14:58:59.217Z,59.70
2018-12-13T15:01:38.070Z,51.10
2018-12-13T15:04:10.534Z,53.60
2018-12-13T15:06:44.870Z,52.73
2018-12-13T15:09:15.919Z,54.17
2018-12-13T15:11:46.417Z,45.03
2018-12-13T15:14:17.254Z,56.30
2018-12-13T15:16:47.962Z,58.73
2018-12-13T15:19:18.910Z,50.30
2018-12-13T15:21:49.732Z,52.93
2018-12-13T15:24:20.704Z,48.90
2018-12-13T15:26:58.056Z,46.40
2018-12-13T15:29:32.192Z,52.57
2018-12-13T15:32:04.302Z,55.77
2018-12-13T15:34:38.838Z,47.40
2018-12-13T15:37:09.563Z,44.90
2018-12-13T15:39:40.403Z,54.77
2018-12-13T15:42:11.301Z,53.47
2018-12-13T15:44:44.109Z,44.10
2018-12-13T15:47:16.327Z,43.73
2018-12-13T15:49:50.122Z,44.07
2018-12-13T15:52:21.099Z,41.27
2018-12-13T15:54:52.799Z,45.80
2018-12-13T15:57:25.283Z,38.27
2018-12-13T15:59:58.788Z,36.40
2018-12-13T16:02:31.422Z,33.33
2018-12-13T16:05:02.598Z,37.87
2018-12-13T16:07:35.065Z,42.70
2018-12-13T16:10:07.848Z,35.67
2018-12-13T16:12:40.439Z,32.53
2018-12-13T16:15:13.362Z,29.30
2018-12-13T16:17:44.444Z,30.93
2018-12-13T16:20:15.631Z,31.63
2018-12-13T16:22:46.490Z,30.87
2018-12-13T16:25:46.852Z,29.83
2018-12-13T16:28:19.425Z,27.90
2018-12-13T16:30:55.112Z,32.43
2018-12-13T16:33:31.363Z,35.93
2018-12-13T16:36:08.290Z,29.93
2018-12-13T16:38:40.787Z,32.70
2018-12-13T16:41:16.518Z,32.00
2018-12-13T16:43:49.273Z,37.27
2018-12-13T16:46:21.371Z,38.97
2018-12-13T16:48:52.765Z,38.70
2018-12-13T16:51:28.469Z,30.80
2018-12-13T16:54:00.137Z,24.53
2018-12-13T16:56:30.793Z,26.90
2018-12-13T16:59:01.582Z,31.57
2018-12-13T17:01:34.520Z,33.93
2018-12-13T17:04:06.779Z,30.40
2018-12-13T17:06:38.427Z,24.90
2018-12-13T17:09:11.587Z,28.90
2018-12-13T17:11:43.624Z,30.90
2018-12-13T17:14:16.916Z,31.60
2018-12-13T17:16:50.223Z,32.30
2018-12-13T17:19:23.836Z,35.47
2018-12-13T17:21:56.494Z,39.40
2018-12-13T17:24:31.162Z,32.60
2018-12-13T17:27:03.593Z,33.67
2018-12-13T17:29:34.897Z,40.03
2018-12-13T17:32:08.100Z,32.63
2018-12-13T17:34:38.687Z,32.00
2018-12-13T17:37:09.321Z,27.63
2018-12-13T17:39:39.928Z,31.60
2018-12-13T17:42:10.557Z,25.70
2018-12-13T17:44:41.435Z,23.37
2018-12-13T17:47:12.458Z,25.10
2018-12-13T17:49:43.073Z,28.07
2018-12-13T17:52:13.935Z,33.23
2018-12-13T17:54:44.761Z,27.67
2018-12-13T17:57:18.072Z,32.10
2018-12-13T17:59:53.378Z,26.93
2018-12-13T18:02:28.642Z,30.23
2018-12-13T18:05:01.938Z,36.87
2018-12-13T18:07:32.634Z,29.77
2018-12-13T18:10:04.533Z,30.10
2018-12-13T18:12:37.602Z,39.60
2018-12-13T18:15:10.167Z,32.83
2018-12-13T18:17:54.288Z,38.70
2018-12-13T18:20:49.884Z,37.47
2018-12-13T18:23:21.578Z,36.40
2018-12-13T18:25:52.123Z,42.97
2018-12-13T18:28:24.046Z,46.50
2018-12-13T18:30:57.698Z,48.27
2018-12-13T18:33:31.129Z,37.30
2018-12-13T18:36:03.936Z,43.80
2018-12-13T18:38:40.567Z,37.53
2018-12-13T18:41:11.439Z,46.80
2018-12-13T18:43:46.135Z,45.13
2018-12-13T18:46:18.526Z,50.83
2018-12-13T18:48:53.647Z,54.07
2018-12-13T18:51:25.967Z,51.63
2018-12-13T18:53:59.446Z,55.03
2018-12-13T18:56:30.271Z,51.90
2018-12-13T18:59:01.204Z,50.70
2018-12-13T19:01:32.033Z,59.40
2018-12-13T19:04:02.899Z,54.40
2018-12-13T19:06:33.541Z,53.43
2018-12-13T19:09:05.726Z,55.40
2018-12-13T19:11:46.038Z,59.23
2018-12-13T19:14:18.392Z,58.80
2018-12-13T19:16:54.150Z,61.00
2018-12-13T19:19:28.738Z,53.47
2018-12-13T19:22:07.890Z,43.67
2018-12-13T19:24:39.311Z,54.33
2018-12-13T19:27:13.341Z,51.50
2018-12-13T19:29:46.483Z,46.90
2018-12-13T19:32:20.344Z,49.53
2018-12-13T19:35:00.162Z,48.83
2018-12-13T19:38:00.048Z,51.50
2018-12-13T19:40:48.190Z,44.60
2018-12-13T19:43:15.423Z,46.67
2018-12-13T19:45:54.768Z,40.13
2018-12-13T19:48:29.595Z,48.43
2018-12-13T19:51:04.629Z,49.43
2018-12-13T19:53:39.391Z,54.63
2018-12-13T19:56:14.173Z,44.43
2018-12-13T19:58:46.456Z,39.53
2018-12-13T20:01:18.395Z,43.43
2018-12-13T20:03:52.348Z,35.60
2018-12-13T20:06:25.490Z,30.83
2018-12-13T20:08:59.270Z,38.50
2018-12-13T20:11:32.831Z,38.57
2018-12-13T20:14:12.166Z,37.40
2018-12-13T20:16:45.498Z,39.47
2018-12-13T20:19:17.674Z,52.90
2018-12-13T20:21:50.206Z,47.33
2018-12-13T20:24:22.571Z,44.03
2018-12-13T20:26:59.036Z,50.37
2018-12-13T20:29:34.623Z,57.13
2018-12-13T20:32:07.300Z,41.03
2018-12-13T20:34:41.113Z,61.00
2018-12-13T20:37:12.666Z,45.17
2018-12-13T20:39:43.441Z,46.90
2018-12-13T20:42:14.159Z,39.17
2018-12-13T20:44:46.475Z,40.40
2018-12-13T20:47:17.556Z,47.23
2018-12-13T20:49:50.302Z,40.57
2018-12-13T20:52:25.154Z,47.40
2018-12-13T20:54:56.822Z,44.00
2018-12-13T20:57:33.618Z,40.33
2018-12-13T21:00:11.082Z,48.50
2018-12-13T21:03:07.208Z,55.30
2018-12-13T21:05:51.735Z,47.33
2018-12-13T21:08:23.835Z,49.93
2018-12-13T21:10:55.097Z,56.37
2018-12-13T21:13:37.206Z,57.77
2018-12-13T21:16:08.187Z,50.37
2018-12-13T21:18:39.466Z,55.23
2018-12-13T21:21:12.517Z,50.87
2018-12-13T21:23:44.775Z,50.83
2018-12-13T21:26:17.803Z,47.00
2018-12-13T21:28:53.410Z,48.43
2018-12-13T21:31:27.374Z,48.00
2018-12-13T21:33:57.987Z,42.70
2018-12-13T21:36:34.716Z,56.43
2018-12-13T21:39:08.071Z,42.87
2018-12-13T21:41:41.882Z,48.17
2018-12-13T21:44:14.843Z,48.10
2018-12-13T21:46:45.387Z,51.10
2018-12-13T21:49:15.918Z,49.23
2018-12-13T21:51:47.384Z,49.67
2018-12-13T21:54:20.364Z,51.27
2018-12-13T21:56:58.477Z,55.77
2018-12-13T21:59:34.169Z,56.20
2018-12-13T22:02:05.479Z,71.27
2018-12-13T22:04:39.040Z,49.33
2018-12-13T22:07:11.659Z,55.70
2018-12-13T22:09:43.459Z,49.43
2018-12-13T22:12:15.891Z,58.93
2018-12-13T22:14:46.813Z,50.33
2018-12-13T22:17:19.421Z,52.90
2018-12-13T22:19:57.627Z,49.37
2018-12-13T22:22:31.540Z,57.57
2018-12-13T22:25:07.437Z,50.07
2018-12-13T22:27:40.936Z,50.03
2018-12-13T22:30:11.978Z,52.10
2018-12-13T22:32:43.188Z,49.00
2018-12-13T22:35:29.678Z,45.30
2018-12-13T22:38:02.862Z,44.43
2018-12-13T22:40:58.630Z,45.27
2018-12-13T22:43:29.855Z,53.53
2018-12-13T22:46:08.451Z,54.70
2018-12-13T22:48:42.815Z,59.77
2018-12-13T22:51:14.860Z,62.20
2018-12-13T22:53:46.748Z,54.90
2018-12-13T22:56:18.249Z,51.23
2018-12-13T22:58:51.896Z,55.07
2018-12-13T23:01:25.608Z,59.97
2018-12-13T23:04:04.886Z,58.10
2018-12-13T23:06:38.277Z,57.77
2018-12-13T23:09:09.365Z,62.03
2018-12-13T23:11:41.918Z,61.87
2018-12-13T23:14:16.140Z,62.63
2018-12-13T23:16:46.939Z,80.70
2018-12-13T23:19:20.339Z,70.83
2018-12-13T23:21:54.053Z,69.77
2018-12-13T23:24:26.763Z,62.90
2018-12-13T23:26:58.358Z,72.90
2018-12-13T23:29:32.704Z,73.60
2018-12-13T23:32:05.238Z,70.87
2018-12-13T23:34:38.736Z,73.17
2018-12-13T23:37:15.644Z,54.70
2018-12-13T23:39:46.191Z,69.17
2018-12-13T23:42:17.762Z,64.37
2018-12-13T23:44:48.325Z,65.50
2018-12-13T23:47:25.765Z,70.77
2018-12-13T23:49:58.563Z,56.47
2018-12-13T23:52:31.124Z,55.67
2018-12-13T23:55:05.173Z,53.53
2018-12-13T23:57:38.135Z,53.73
